This is the latest recevied weather packets stored in our database for station/object DO3HUM-5. If no packets are shown the sender has not sent any weather packets the latest 10 day(s).
| Time | Temp. | Humidity | Pressure | Rain* | Wind** | Luminosity | Snow |
|---|---|---|---|---|---|---|---|
| 1777456228 | 13.33° C | 40% | 1036.5 hPa | 0 mm | - | - | - |
| 1777455624 | 13.33° C | 41% | 1036.6 hPa | 0 mm | - | - | - |
| 1777455021 | 12.78° C | 40% | 1036.5 hPa | 0 mm | - | - | - |
| 1777454419 | 12.78° C | 39% | 1036.6 hPa | 0 mm | - | - | - |
| 1777453817 | 12.22° C | 41% | 1036.5 hPa | 0 mm | - | - | - |
| 1777453275 | 11.67° C | 40% | 1036.5 hPa | 0 mm | - | - | - |
| 1777452668 | 12.22° C | 40% | 1036.6 hPa | 0 mm | - | - | - |
| 1777452067 | 11.67° C | 41% | 1036.5 hPa | 0 mm | - | - | - |
| 1777451463 | 11.67° C | 43% | 1036.6 hPa | 0 mm | - | - | - |
| 1777450855 | 11.11° C | 43% | 1036.5 hPa | 0 mm | - | - | - |
| 1777450252 | 11.67° C | 43% | 1036.5 hPa | 0 mm | - | - | - |
| 1777449649 | 11.11° C | 47% | 1036.3 hPa | 0 mm | - | - | - |
| 1777449046 | 11.11° C | 50% | 1036.2 hPa | 0 mm | - | - | - |
| 1777448444 | 10.56° C | 49% | 1035.9 hPa | 0 mm | - | - | - |
| 1777447842 | 10.56° C | 50% | 1035.8 hPa | 0 mm | - | - | - |
| 1777447240 | 10.56° C | 51% | 1035.7 hPa | 0 mm | - | - | - |
| 1777446637 | 10.56° C | 51% | 1035.8 hPa | 0 mm | - | - | - |
| 1777446025 | 9.44° C | 55% | 1035.7 hPa | 0 mm | - | - | - |
| 1777445421 | 8.89° C | 56% | 1035.6 hPa | 0 mm | - | - | - |
| 1777444818 | 8.89° C | 56% | 1035.5 hPa | 0 mm | - | - | - |
| 1777444215 | 8.33° C | 57% | 1035.5 hPa | 0 mm | - | - | - |
| 1777443673 | 7.78° C | 58% | 1035.4 hPa | 0 mm | - | - | - |
| 1777443070 | 7.78° C | 59% | 1035.2 hPa | 0 mm | - | - | - |
| 1777442468 | 7.22° C | 60% | 1035 hPa | 0 mm | - | - | - |
| 1777441864 | 7.22° C | 62% | 1035 hPa | 0 mm | - | - | - |
* Rain latest hour (hover to see other rain measurements)
** Current wind speed in m/s (hover to see current wind gust speed)